Time;durP1;ratioP1;P1;durP2;ratioP2;P2;SDS_P1;SDS_P2;PMS_P1;PMS_P2;Temp;Humidity;BMP_temperature;BMP_pressure;BME280_temperature;BME280_humidity;BME280_pressure;Samples;Min_cycle;Max_cycle;Signal;HPM_P1;HPM_P2
2021/03/23 04:24:11;;;;;;;17.35;13.15;;;;;;;;;;6011697;23;20197;31
2021/03/23 05:11:39;;;;;;;20.90;16.08;;;;;;;;;;6086426;23;20203;-86
2021/03/23 05:55:25;;;;;;;23.98;16.77;;;;;;;;;;6114248;23;20186;-85
2021/03/23 06:00:51;;;;;;;27.73;18.05;;;;;;;;;;6075534;22;20197;-84
2021/03/23 06:17:19;;;;;;;21.45;16.20;;;;;;;;;;6117855;23;20236;-85
2021/03/23 06:28:00;;;;;;;26.95;17.85;;;;;;;;;;6100068;23;20228;-86
2021/03/23 06:35:58;;;;;;;23.98;17.85;;;;;;;;;;6118240;23;20635;-86
2021/03/23 06:38:30;;;;;;;24.25;18.63;;;;;;;;;;6148149;22;20211;-87
2021/03/23 06:46:27;;;;;;;26.23;18.77;;;;;;;;;;6110962;23;20251;-86
2021/03/23 06:49:30;;;;;;;27.08;18.10;;;;;;;;;;6083460;22;20206;-86
2021/03/23 06:55:28;;;;;;;26.10;19.77;;;;;;;;;;6099921;23;20202;-86
2021/03/23 06:57:58;;;;;;;24.63;18.42;;;;;;;;;;6108457;23;20154;-86
2021/03/23 07:00:32;;;;;;;27.80;19.10;;;;;;;;;;6114630;23;20163;-87
2021/03/23 07:03:17;;;;;;;29.05;20.27;;;;;;;;;;6114499;23;20205;-86
2021/03/23 07:05:45;;;;;;;23.52;18.98;;;;;;;;;;6114680;23;20134;-86
2021/03/23 07:13:40;;;;;;;29.38;20.90;;;;;;;;;;6110211;23;20204;-87
2021/03/23 07:16:26;;;;;;;31.15;20.27;;;;;;;;;;6111843;22;20202;-88
2021/03/23 07:18:57;;;;;;;27.08;19.88;;;;;;;;;;6218314;23;20161;-85
2021/03/23 07:21:24;;;;;;;30.05;21.33;;;;;;;;;;6218676;23;20318;-86
2021/03/23 07:24:05;;;;;;;25.80;19.50;;;;;;;;;;6148023;23;20198;-87
2021/03/23 07:26:36;;;;;;;31.80;21.70;;;;;;;;;;6213763;23;20206;-86
2021/03/23 07:29:03;;;;;;;29.48;20.42;;;;;;;;;;6241612;23;20418;-86
2021/03/23 07:32:04;;;;;;;29.17;19.48;;;;;;;;;;6212531;23;20151;-86
2021/03/23 07:34:34;;;;;;;30.92;20.30;;;;;;;;;;6190347;22;20212;-88
2021/03/23 07:37:32;;;;;;;29.55;20.02;;;8.10;92.10;;;;;;6111737;23;20190;-87
2021/03/23 07:40:02;;;;;;;31.52;21.13;;;;;;;;;;6269654;23;20181;-88
2021/03/23 07:42:39;;;;;;;28.73;20.40;;;8.10;91.50;;;;;;6268034;23;20218;-88
2021/03/23 07:45:17;;;;;;;25.92;20.52;;;8.20;91.80;;;;;;6241555;23;20161;-87
2021/03/23 07:47:51;;;;;;;37.60;21.75;;;8.10;91.70;;;;;;6265083;23;20146;-88
2021/03/23 07:50:24;;;;;;;33.55;20.92;;;8.20;91.80;;;;;;6267553;23;20583;-87
2021/03/23 07:53:27;;;;;;;26.42;20.20;;;8.40;90.00;;;;;;6267507;22;20138;-88
2021/03/23 07:56:06;;;;;;;31.55;20.95;;;8.40;89.50;;;;;;6263011;23;20189;-88
2021/03/23 07:58:56;;;;;;;32.17;22.10;;;8.70;91.10;;;;;;6259917;22;20146;-89
2021/03/23 08:01:56;;;;;;;37.50;23.17;;;8.80;88.00;;;;;;6259005;23;20150;-88
2021/03/23 08:04:51;;;;;;;30.70;20.88;;;9.00;90.60;;;;;;6261641;23;20219;-88
2021/03/23 08:07:25;;;;;;;27.88;20.23;;;9.30;87.60;;;;;;6259556;23;20164;-87
2021/03/23 08:10:09;;;;;;;34.03;19.92;;;9.20;89.10;;;;;;6258919;23;20228;-87
2021/03/23 08:12:58;;;;;;;30.40;20.52;;;9.80;86.60;;;;;;6262432;23;20131;-87
2021/03/23 08:15:30;;;;;;;29.98;20.02;;;;;;;;;;6261419;23;20174;-87
2021/03/23 08:18:26;;;;;;;33.50;22.55;;;9.80;84.90;;;;;;6264955;23;20158;-87
2021/03/23 08:21:17;;;;;;;34.85;21.85;;;9.90;73.90;;;;;;6269811;22;20137;-86
2021/03/23 08:24:07;;;;;;;39.70;23.67;;;10.00;72.90;;;;;;6269654;23;20174;-85
2021/03/23 08:27:13;;;;;;;33.85;21.60;;;10.10;73.00;;;;;;6270220;23;20158;-87
2021/03/23 08:30:07;;;;;;;32.25;20.45;;;;;;;;;;6270052;22;20172;-86
2021/03/23 08:32:42;;;;;;;31.53;20.33;;;;;;;;;;6269085;23;20215;-87
2021/03/23 08:35:28;;;;;;;27.20;19.57;;;;;;;;;;6267325;23;20381;-88
2021/03/23 08:38:04;;;;;;;28.40;21.27;;;;;;;;;;6266025;23;20445;-87
2021/03/23 08:40:54;;;;;;;30.40;21.40;;;11.00;76.20;;;;;;6265713;23;20460;-87
2021/03/23 08:49:02;;;;;;;32.50;22.37;;;11.40;57.80;;;;;;6102736;22;20465;-87
2021/03/23 08:51:32;;;;;;;32.10;21.97;;;14.20;55.60;;;;;;6094174;23;20404;-85
2021/03/23 08:54:06;;;;;;;31.03;22.13;;;11.60;55.20;;;;;;6117474;23;20420;-86
2021/03/23 08:59:53;;;;;;;29.63;20.77;;;11.90;51.30;;;;;;6117025;23;20537;-87
2021/03/23 09:02:21;;;;;;;33.70;22.43;;;12.50;54.40;;;;;;6113681;23;20386;-87
2021/03/23 09:26:38;;;;;;;26.30;20.10;;;;;;;;;;6103547;23;20517;-87
2021/03/23 09:29:32;;;;;;;26.53;21.63;;;16.50;42.20;;;;;;6093043;23;20720;-87
2021/03/23 09:37:42;;;;;;;23.80;19.30;;;15.90;39.80;;;;;;6171631;22;20449;-86
2021/03/23 09:48:13;;;;;;;30.57;21.27;;;16.00;39.60;;;;;;6084058;23;20639;-86
2021/03/23 09:51:00;;;;;;;28.87;21.17;;;19.10;47.20;;;;;;6114175;23;20453;-88
2021/03/23 09:53:46;;;;;;;22.70;18.67;;;19.10;44.70;;;;;;6108656;22;20541;-86
2021/03/23 09:58:57;;;;;;;21.70;18.03;;;15.90;39.90;;;;;;6081872;23;20455;-89
2021/03/23 10:01:28;;;;;;;25.37;20.17;;;18.10;42.50;;;;;;6048669;23;20399;-88
2021/03/23 10:03:57;;;;;;;20.00;17.40;;;17.00;41.80;;;;;;6052586;23;20381;-89
2021/03/23 10:06:26;;;;;;;23.73;18.40;;;18.90;44.00;;;;;;6048443;23;20388;-88
2021/03/23 10:08:58;;;;;;;25.87;18.17;;;19.60;40.50;;;;;;6052362;23;20379;-88
2021/03/23 10:11:49;;;;;;;20.70;18.47;;;18.10;37.00;;;;;;6052319;23;20380;-90
2021/03/23 10:14:40;;;;;;;21.10;17.53;;;22.70;40.60;;;;;;6055160;23;20387;-88
2021/03/23 10:17:07;;;;;;;19.83;17.47;;;;;;;;;;6050699;23;20447;-88
2021/03/23 10:19:50;;;;;;;23.53;18.00;;;18.10;36.50;;;;;;6054289;23;20395;-90
2021/03/23 10:22:41;;;;;;;19.60;17.60;;;18.30;34.40;;;;;;6057404;23;20793;-89
2021/03/23 10:25:19;;;;;;;19.77;17.67;;;18.50;34.90;;;;;;6049973;23;20419;-88
2021/03/23 10:27:55;;;;;;;19.90;17.87;;;18.10;36.40;;;;;;6049531;23;20387;-88
2021/03/23 10:31:17;;;;;;;18.00;16.30;;;18.80;37.20;;;;;;6054557;23;20419;-89
2021/03/23 10:34:30;;;;;;;20.37;17.23;;;19.60;36.70;;;;;;6114097;23;20376;-89
2021/03/23 10:37:40;;;;;;;21.90;16.40;;;17.00;35.10;;;;;;6142910;22;20458;-89
2021/03/23 10:48:26;;;;;;;19.10;16.93;;;19.30;50.50;;;;;;6093241;23;20458;-88
2021/03/23 10:54:18;;;;;;;20.00;17.27;;;19.00;51.40;;;;;;6104302;23;20463;-87
2021/03/23 10:56:55;;;;;;;20.63;18.50;;;18.70;49.30;;;;;;6050962;23;20501;-88
2021/03/23 10:59:58;;;;;;;20.50;16.77;;;18.00;50.00;;;;;;6172415;23;20387;-89
2021/03/23 11:03:01;;;;;;;;;;;;;;;;;;;;;
2021/03/23 11:05:48;;;;;;;18.93;15.60;;;20.10;35.20;;;;;;6067326;23;20379;-88
2021/03/23 11:08:18;;;;;;;20.50;18.50;;;22.10;31.40;;;;;;6115032;23;20804;-89
2021/03/23 11:10:52;;;;;;;26.03;16.47;;;20.80;32.50;;;;;;6070867;23;20475;-88
2021/03/23 11:16:18;;;;;;;21.23;17.37;;;19.30;31.70;;;;;;6176306;22;20449;-87
2021/03/23 11:18:46;;;;;;;20.23;15.83;;;21.60;38.00;;;;;;6084834;23;20410;-86
2021/03/23 11:21:22;;;;;;;22.10;19.77;;;19.30;35.10;;;;;;6111312;23;20371;-87
2021/03/23 11:24:10;;;;;;;18.90;16.70;;;19.30;36.80;;;;;;6112588;23;20378;-87
2021/03/23 11:26:38;;;;;;;17.10;15.30;;;20.10;35.50;;;;;;6112426;23;20379;-88
2021/03/23 11:29:11;;;;;;;19.23;17.33;;;19.90;35.60;;;;;;6189150;23;20473;-90
2021/03/23 11:31:37;;;;;;;17.70;15.80;;;19.40;34.50;;;;;;6092081;23;20398;-87
2021/03/23 11:34:06;;;;;;;21.87;16.77;;;19.40;34.80;;;;;;6092712;23;20410;-89
2021/03/23 11:36:34;;;;;;;21.97;17.07;;;19.20;34.80;;;;;;6090510;23;21051;-87
2021/03/23 11:39:03;;;;;;;23.10;18.47;;;;;;;;;;6057233;23;20412;-86
2021/03/23 11:41:52;;;;;;;20.97;18.13;;;18.70;35.10;;;;;;6056325;23;20380;-85
2021/03/23 11:49:53;;;;;;;20.23;17.40;;;20.20;31.40;;;;;;6108323;22;20463;-87
2021/03/23 11:54:54;;;;;;;21.20;18.07;;;19.60;31.60;;;;;;6085851;23;20442;-87
2021/03/23 11:57:22;;;;;;;20.90;16.87;;;18.60;36.90;;;;;;6082667;23;20434;-88
2021/03/23 12:00:04;;;;;;;24.37;18.93;;;17.60;36.60;;;;;;6085376;23;20418;-86
2021/03/23 12:02:33;;;;;;;21.33;19.00;;;18.20;37.00;;;;;;6084477;23;20407;-88
2021/03/23 12:05:00;;;;;;;21.20;18.57;;;17.80;39.20;;;;;;6085153;23;20377;-88
2021/03/23 12:07:40;;;;;;;21.70;19.37;;;19.80;38.20;;;;;;6126841;23;20497;-87
2021/03/23 12:16:21;;;;;;;20.93;18.73;;;16.80;35.00;;;;;;6171209;22;20476;-90
2021/03/23 12:19:13;;;;;;;25.30;21.13;;;21.80;44.60;;;;;;6196280;22;20450;-87
2021/03/23 12:21:39;;;;;;;24.33;18.83;;;15.30;40.80;;;;;;6192682;23;20719;-85
2021/03/23 12:24:05;;;;;;;24.17;18.50;;;15.70;45.90;;;;;;6215169;23;20387;-83
2021/03/23 12:26:32;;;;;;;23.50;19.10;;;15.50;37.40;;;;;;6217241;23;20200;-85
2021/03/23 12:28:58;;;;;;;25.07;20.23;;;15.60;37.90;;;;;;6215613;23;20386;-85
2021/03/23 12:31:26;;;;;;;27.47;20.20;;;15.50;37.70;;;;;;6215510;23;20405;-85
2021/03/23 12:33:53;;;;;;;34.63;20.23;;;16.20;38.30;;;;;;6212231;23;20486;-85
2021/03/23 12:36:19;;;;;;;25.57;19.63;;;14.90;37.70;;;;;;6217990;23;20540;-86
2021/03/23 12:38:48;;;;;;;23.70;20.00;;;14.60;37.80;;;;;;6218143;23;20402;-85
2021/03/23 12:43:50;;;;;;;22.30;19.57;;;14.80;43.00;;;;;;6114678;23;20239;-87
2021/03/23 12:46:17;;;;;;;26.27;19.80;;;14.70;44.20;;;;;;6142217;23;20454;-82
2021/03/23 12:48:44;;;;;;;26.90;18.70;;;14.10;43.60;;;;;;6219617;23;20374;-84
2021/03/23 12:51:23;;;;;;;26.83;20.90;;;15.30;44.60;;;;;;6218990;23;20838;-84
2021/03/23 12:53:50;;;;;;;26.70;21.10;;;14.10;49.70;;;;;;6218959;23;20378;-85
2021/03/23 12:56:16;;;;;;;34.23;21.77;;;15.50;51.50;;;;;;6223970;23;20414;-84
2021/03/23 12:58:45;;;;;;;27.13;19.87;;;14.10;57.10;;;;;;6219190;23;20379;-84
2021/03/23 13:01:10;;;;;;;26.40;20.57;;;;;;;;;;6217779;23;20383;-87
2021/03/23 13:03:37;;;;;;;23.80;20.07;;;;;;;;;;6231724;23;20359;-88
2021/03/23 13:06:22;;;;;;;26.37;19.20;;;;;;;;;;6241052;22;20359;-89
2021/03/23 13:08:52;;;;;;;23.83;20.33;;;;;;;;;;6147926;22;20479;-87
2021/03/23 13:11:21;;;;;;;21.33;18.27;;;;;;;;;;6237114;23;20382;-87
2021/03/23 13:13:51;;;;;;;22.13;18.90;;;;;;;;;;6238156;23;20382;-88
2021/03/23 13:16:22;;;;;;;27.70;19.43;;;;;;;;;;6235840;23;20415;-88
2021/03/23 13:18:52;;;;;;;25.33;22.07;;;;;;;;;;6235600;23;20458;-89
2021/03/23 13:23:59;;;;;;;25.83;20.77;;;;;;;;;;6114882;23;20748;-87
2021/03/23 13:26:30;;;;;;;26.77;22.33;;;13.80;69.90;;;;;;6114094;23;20409;-88
2021/03/23 13:29:10;;;;;;;26.37;22.23;;;13.90;69.30;;;;;;6088522;23;20402;-89
2021/03/23 13:31:42;;;;;;;23.17;20.57;;;14.10;69.10;;;;;;6111320;23;20442;-87
2021/03/23 13:34:38;;;;;;;27.40;20.70;;;;;;;;;;6119551;23;20394;-87
2021/03/23 13:37:06;;;;;;;26.33;20.17;;;13.70;73.10;;;;;;6115801;23;20442;-89
2021/03/23 13:39:35;;;;;;;22.83;19.80;;;;;;;;;;6088344;23;20454;-88
2021/03/23 13:42:13;;;;;;;25.70;20.23;;;14.00;71.20;;;;;;6115293;23;20465;-89
2021/03/23 13:44:52;;;;;;;20.67;18.47;;;14.00;65.30;;;;;;6115697;23;20358;-87
2021/03/23 13:47:23;;;;;;;27.53;20.17;;;14.00;66.70;;;;;;6116311;23;20385;-88
2021/03/23 13:49:54;;;;;;;22.20;17.80;;;14.10;69.60;;;;;;6091656;23;20399;-88
2021/03/23 13:54:59;;;;;;;20.97;18.80;;;14.30;63.70;;;;;;6110098;23;20457;-87
2021/03/23 13:57:27;;;;;;;23.87;17.70;;;14.20;65.70;;;;;;6113718;23;20417;-86
2021/03/23 13:59:59;;;;;;;20.57;18.13;;;;;;;;;;6114868;23;20436;-87
2021/03/23 14:02:28;;;;;;;23.13;19.80;;;14.30;64.60;;;;;;6115502;23;20379;-89
2021/03/23 14:04:53;;;;;;;23.80;20.10;;;13.90;65.10;;;;;;6115334;23;20378;-89
2021/03/23 14:07:27;;;;;;;21.17;18.60;;;13.70;68.50;;;;;;6113233;23;20374;-89
2021/03/23 14:09:55;;;;;;;22.77;18.97;;;13.90;66.60;;;;;;6111851;23;20197;-86
2021/03/23 14:12:31;;;;;;;19.90;17.80;;;13.80;67.40;;;;;;6210431;23;20772;-90
2021/03/23 14:15:04;;;;;;;20.47;18.27;;;13.90;67.30;;;;;;6115128;23;20392;-88
2021/03/23 14:17:42;;;;;;;20.40;18.40;;;13.70;64.80;;;;;;6090025;23;20442;-86
2021/03/23 14:20:14;;;;;;;24.07;20.00;;;13.80;70.20;;;;;;6104584;23;20492;-87
2021/03/23 14:22:49;;;;;;;24.47;19.00;;;13.70;69.30;;;;;;6067851;23;20485;-89
2021/03/23 14:25:24;;;;;;;19.13;17.13;;;13.60;66.70;;;;;;6084872;23;20387;-89
2021/03/23 14:27:51;;;;;;;21.80;19.47;;;13.40;68.60;;;;;;6085823;23;20410;-89
2021/03/23 14:30:22;;;;;;;25.20;20.60;;;13.40;69.00;;;;;;6087280;23;20399;-91
2021/03/23 14:32:49;;;;;;;25.80;22.50;;;13.60;68.50;;;;;;6077724;22;20530;-89
2021/03/23 14:35:19;;;;;;;23.50;21.13;;;13.50;63.30;;;;;;6083686;23;21215;-86
2021/03/23 14:40:30;;;;;;;26.80;23.93;;;13.70;64.20;;;;;;6170507;23;20454;-89
2021/03/23 14:43:02;;;;;;;30.80;26.13;;;13.70;60.20;;;;;;6148805;23;20383;-88
2021/03/23 14:45:29;;;;;;;28.23;22.57;;;13.80;64.10;;;;;;6127818;23;20443;-88
2021/03/23 14:48:23;;;;;;;22.90;19.30;;;13.70;64.80;;;;;;6094478;23;20461;-88
2021/03/23 14:50:50;;;;;;;21.10;18.30;;;13.80;64.60;;;;;;6204771;23;20426;-87
2021/03/23 14:53:20;;;;;;;19.07;17.07;;;13.80;65.20;;;;;;6206348;23;20378;-87
2021/03/23 14:55:53;;;;;;;22.70;19.60;;;13.80;62.20;;;;;;6205155;23;20426;-89
2021/03/23 14:58:22;;;;;;;28.40;21.13;;;13.40;64.40;;;;;;6233238;23;20355;-88
2021/03/23 15:01:04;;;;;;;23.63;20.50;;;13.60;65.40;;;;;;6213241;23;20410;-86
2021/03/23 15:03:37;;;;;;;21.87;19.33;;;13.50;65.30;;;;;;6236205;23;20455;-85
2021/03/23 15:06:06;;;;;;;26.07;20.33;;;13.40;60.90;;;;;;6206996;23;20379;-86
2021/03/23 15:08:44;;;;;;;21.53;17.37;;;13.50;65.00;;;;;;6207253;23;20470;-87
2021/03/23 15:11:16;;;;;;;19.87;17.87;;;13.60;64.20;;;;;;6230977;23;20367;-85
2021/03/23 15:13:49;;;;;;;23.60;19.03;;;13.80;62.90;;;;;;6206487;23;20918;-87
2021/03/23 15:16:17;;;;;;;23.93;20.30;;;14.10;61.70;;;;;;6228474;23;20430;-88
2021/03/23 15:18:43;;;;;;;25.47;20.77;;;13.70;63.80;;;;;;6232259;23;20383;-88
2021/03/23 15:21:20;;;;;;;24.23;21.00;;;13.50;61.90;;;;;;6206223;23;20389;-88
2021/03/23 15:23:51;;;;;;;22.73;18.60;;;13.10;60.10;;;;;;6233902;23;20374;-87
2021/03/23 15:26:29;;;;;;;23.37;19.40;;;13.10;62.90;;;;;;6234770;23;20434;-85
2021/03/23 15:28:58;;;;;;;25.63;19.13;;;13.30;62.60;;;;;;6235800;23;20406;-84
2021/03/23 15:31:24;;;;;;;23.67;19.70;;;13.40;62.40;;;;;;6232995;23;20461;-88
2021/03/23 15:33:53;;;;;;;25.73;20.80;;;13.40;62.50;;;;;;6231825;23;20382;-86
2021/03/23 15:36:28;;;;;;;24.07;19.77;;;13.40;62.60;;;;;;6232735;23;20418;-87
2021/03/23 15:38:59;;;;;;;22.70;19.83;;;13.50;62.20;;;;;;6206822;23;20370;-88
2021/03/23 15:41:27;;;;;;;22.93;17.30;;;13.60;58.90;;;;;;6209414;23;20437;-86
2021/03/23 15:43:56;;;;;;;20.10;17.40;;;13.50;61.50;;;;;;6236669;23;20379;-87
2021/03/23 15:46:21;;;;;;;20.20;17.30;;;13.70;60.70;;;;;;6231291;23;20430;-87
2021/03/23 15:48:47;;;;;;;18.27;16.33;;;13.80;60.50;;;;;;6236672;23;20379;-85
2021/03/23 15:51:27;;;;;;;21.43;18.30;;;14.00;59.50;;;;;;6234094;23;20170;-86
2021/03/23 15:53:53;;;;;;;24.27;18.90;;;13.90;58.90;;;;;;6205745;23;20135;-87
2021/03/23 15:56:26;;;;;;;18.73;16.73;;;14.00;58.80;;;;;;6232712;23;20426;-88
2021/03/23 15:59:00;;;;;;;21.03;18.80;;;14.00;58.80;;;;;;6235251;23;20713;-87
2021/03/23 16:01:27;;;;;;;22.57;18.03;;;14.00;58.30;;;;;;6203041;23;20394;-87
2021/03/23 16:03:53;;;;;;;20.40;18.33;;;14.20;58.90;;;;;;6229778;23;20366;-86
2021/03/23 16:06:21;;;;;;;20.47;18.27;;;14.10;58.60;;;;;;6228184;23;20358;-86
2021/03/23 16:08:48;;;;;;;23.20;19.37;;;14.00;58.50;;;;;;6228923;23;20576;-88
2021/03/23 16:11:18;;;;;;;22.00;19.37;;;14.10;58.60;;;;;;6226281;23;20370;-87
2021/03/23 16:13:47;;;;;;;20.10;18.03;;;14.10;57.20;;;;;;6229131;23;20373;-86
2021/03/23 16:16:13;;;;;;;21.77;17.37;;;14.00;59.40;;;;;;6202712;23;20516;-87
2021/03/23 16:18:42;;;;;;;23.20;19.10;;;13.80;59.10;;;;;;6227164;23;20386;-84
2021/03/23 16:21:08;;;;;;;22.10;17.70;;;13.60;59.10;;;;;;6198128;23;20455;-87
2021/03/23 16:23:38;;;;;;;19.33;17.13;;;13.60;59.80;;;;;;6196818;23;20477;-86
2021/03/23 16:26:09;;;;;;;18.53;16.57;;;13.60;60.00;;;;;;6180179;23;20394;-86
2021/03/23 16:28:41;;;;;;;20.33;16.07;;;13.60;59.20;;;;;;6234777;23;20366;-87
2021/03/23 16:31:16;;;;;;;19.13;17.00;;;13.70;59.40;;;;;;6206281;23;20367;-87
2021/03/23 16:33:42;;;;;;;18.33;16.47;;;13.70;59.80;;;;;;6207042;23;20377;-86
2021/03/23 16:36:13;;;;;;;18.30;16.53;;;13.60;59.90;;;;;;6208154;23;20512;-86
2021/03/23 16:38:44;;;;;;;21.40;17.53;;;13.60;58.70;;;;;;6181105;23;20182;-87
2021/03/23 16:41:16;;;;;;;20.77;17.07;;;13.50;60.00;;;;;;6203951;23;20379;-86
2021/03/23 16:43:42;;;;;;;19.27;16.30;;;13.60;58.70;;;;;;6230186;23;20853;-86
2021/03/23 16:46:16;;;;;;;23.80;16.83;;;13.40;59.50;;;;;;6228973;23;20949;-86
2021/03/23 16:48:42;;;;;;;19.40;17.33;;;13.50;57.40;;;;;;6204223;23;20437;-86
2021/03/23 16:51:39;;;;;;;20.67;17.63;;;13.40;59.60;;;;;;6229891;23;20402;-86
2021/03/23 16:54:07;;;;;;;19.30;16.37;;;13.20;58.70;;;;;;6227593;23;20187;-86
2021/03/23 16:56:34;;;;;;;23.87;16.60;;;13.10;61.00;;;;;;6230768;23;20480;-86
2021/03/23 16:59:00;;;;;;;25.83;16.80;;;13.20;60.50;;;;;;6159181;23;20391;-85
2021/03/23 17:01:56;;;;;;;17.90;16.10;;;13.10;61.40;;;;;;6209120;23;20394;-87
2021/03/23 17:07:06;;;;;;;21.23;16.53;;;12.90;51.60;;;;;;6160591;23;20448;-86
2021/03/23 17:09:42;;;;;;;19.10;16.90;;;13.10;52.10;;;;;;6094291;23;20450;-86
2021/03/23 17:17:50;;;;;;;22.00;17.13;;;12.60;48.60;;;;;;6059969;23;20439;-88
2021/03/23 17:20:37;;;;;;;17.53;15.30;;;13.00;46.60;;;;;;6078992;22;20553;-86
2021/03/23 17:25:53;;;;;;;23.20;16.77;;;12.30;49.00;;;;;;6116509;22;20448;-87
2021/03/23 17:28:46;;;;;;;20.53;16.40;;;13.20;51.20;;;;;;6121426;23;20460;-87
2021/03/23 17:37:00;;;;;;;19.97;16.53;;;11.80;50.30;;;;;;6098853;23;20537;-87
2021/03/23 17:44:40;;;;;;;28.33;21.20;;;12.00;49.90;;;;;;6095868;23;20453;-86
2021/03/23 17:57:52;;;;;;;20.97;18.43;;;11.00;49.50;;;;;;6041260;22;20514;-88
2021/03/23 18:16:31;;;;;;;25.60;19.17;;;10.50;60.30;;;;;;6069379;22;20194;-88
2021/03/23 18:18:59;;;;;;;29.17;19.40;;;14.30;62.70;;;;;;6040699;23;589017;-88
2021/03/23 19:42:14;;;;;;;30.13;22.05;;;7.90;62.90;;;;;;6075771;23;20197;-87
2021/03/23 19:45:31;;;;;;;;;;;;;;;;;;;;;
2021/03/23 19:48:02;;;;;;;31.55;22.45;;;7.60;68.30;;;;;;6122008;23;20142;-88
2021/03/23 19:51:13;;;;;;;36.92;23.80;;;7.60;67.80;;;;;;6113980;23;20158;-89
2021/03/23 19:56:43;;;;;;;35.65;22.35;;;7.50;67.90;;;;;;6088048;23;20183;-89
2021/03/23 19:59:09;;;;;;;32.33;23.75;;;9.30;66.80;;;;;;6091981;23;20157;-89
2021/03/23 20:01:38;;;;;;;32.70;23.65;;;7.20;78.30;;;;;;6086569;23;20158;-88
2021/03/23 20:04:07;;;;;;;44.38;25.05;;;9.70;75.10;;;;;;6086594;23;20150;-87
2021/03/23 20:06:33;;;;;;;34.53;23.92;;;7.30;73.20;;;;;;6088000;23;20154;-88
2021/03/23 20:09:08;;;;;;;34.70;24.20;;;8.70;70.60;;;;;;6087144;23;20149;-88
2021/03/23 20:11:34;;;;;;;37.25;25.92;;;8.10;67.50;;;;;;6113792;23;20172;-88
2021/03/23 20:14:17;;;;;;;36.22;23.25;;;7.00;71.00;;;;;;6082733;23;20150;-88
2021/03/23 20:16:48;;;;;;;36.50;24.00;;;7.10;73.80;;;;;;6086165;23;20184;-89
2021/03/23 20:19:14;;;;;;;31.75;24.17;;;7.20;77.90;;;;;;6209623;23;20174;-88
2021/03/23 20:21:46;;;;;;;35.67;25.75;;;7.20;76.30;;;;;;6108752;23;20198;-88
2021/03/23 20:24:13;;;;;;;33.80;23.65;;;7.20;71.40;;;;;;6084683;23;20161;-87
2021/03/23 20:26:45;;;;;;;37.33;23.65;;;6.90;74.90;;;;;;6185453;23;20155;-88
2021/03/23 20:29:20;;;;;;;36.15;24.80;;;6.90;76.00;;;;;;6085290;23;20184;-88
2021/03/23 20:31:46;;;;;;;34.35;24.67;;;6.80;77.80;;;;;;6115411;23;20152;-88
2021/03/23 20:34:14;;;;;;;35.00;23.53;;;9.00;79.70;;;;;;6112494;23;20147;-88
2021/03/23 20:36:43;;;;;;;39.78;26.25;;;9.50;78.60;;;;;;6087400;23;20181;-88
2021/03/23 20:39:26;;;;;;;40.55;26.80;;;9.10;69.60;;;;;;6113658;23;20221;-87
2021/03/23 20:41:55;;;;;;;40.65;25.65;;;7.70;68.50;;;;;;6090508;23;20149;-88
2021/03/23 20:44:24;;;;;;;37.97;26.40;;;8.40;75.70;;;;;;6116705;23;20153;-87
2021/03/23 20:47:22;;;;;;;40.50;26.25;;;6.40;77.90;;;;;;6089618;23;20169;-88
2021/03/23 20:49:50;;;;;;;33.95;24.50;;;7.00;66.70;;;;;;6113820;23;20215;-88
2021/03/23 20:52:17;;;;;;;37.30;26.20;;;5.80;73.10;;;;;;6115224;23;20210;-87
2021/03/23 20:54:42;;;;;;;44.20;27.10;;;5.90;77.20;;;;;;6115365;23;20157;-88
2021/03/23 20:57:20;;;;;;;38.87;25.17;;;7.00;81.30;;;;;;6088338;23;20176;-86
2021/03/23 20:59:46;;;;;;;41.38;28.42;;;6.50;70.30;;;;;;6087236;23;20169;-89
2021/03/23 21:02:20;;;;;;;37.17;26.67;;;7.00;80.00;;;;;;6086219;23;20158;-89
2021/03/23 21:04:53;;;;;;;41.40;25.95;;;8.90;69.50;;;;;;6086967;23;20208;-88
2021/03/23 21:07:22;;;;;;;42.65;25.70;;;6.80;66.90;;;;;;6111149;23;20135;-87
2021/03/23 21:09:58;;;;;;;43.28;28.95;;;6.10;65.90;;;;;;6213326;23;20197;-88
2021/03/23 21:12:24;;;;;;;41.28;27.08;;;7.10;67.10;;;;;;6086739;23;20149;-88
2021/03/23 21:14:52;;;;;;;39.35;27.35;;;7.10;76.80;;;;;;6112240;23;20177;-89
2021/03/23 21:17:18;;;;;;;39.58;27.90;;;7.30;74.60;;;;;;6089113;23;20208;-88
2021/03/23 21:19:46;;;;;;;37.60;28.13;;;8.50;80.50;;;;;;6088228;23;20178;-88
2021/03/23 21:22:17;;;;;;;47.70;27.88;;;8.80;74.20;;;;;;6088262;23;20510;-87
2021/03/23 21:24:44;;;;;;;41.38;27.27;;;4.90;76.50;;;;;;6085319;23;20150;-88
2021/03/23 21:27:10;;;;;;;41.15;26.58;;;5.60;76.00;;;;;;6085534;23;20610;-87
2021/03/23 21:29:37;;;;;;;44.00;26.20;;;7.80;74.60;;;;;;6086680;23;20162;-88
2021/03/23 21:32:03;;;;;;;45.60;25.90;;;8.20;78.50;;;;;;6109608;23;20575;-88
2021/03/23 21:34:29;;;;;;;42.30;28.02;;;7.40;74.70;;;;;;6086480;23;20178;-88
2021/03/23 21:36:55;;;;;;;37.97;26.60;;;7.80;82.50;;;;;;6110161;23;20190;-88
2021/03/23 21:39:23;;;;;;;43.27;28.20;;;5.00;80.70;;;;;;6084706;23;20165;-87
2021/03/23 21:41:54;;;;;;;42.70;27.55;;;7.50;85.90;;;;;;6109181;23;20382;-88
2021/03/23 21:44:28;;;;;;;42.30;27.55;;;6.90;75.70;;;;;;6084061;23;20169;-89
2021/03/23 21:46:53;;;;;;;39.75;26.92;;;7.90;78.70;;;;;;6084457;23;20158;-87
2021/03/23 21:49:21;;;;;;;48.07;27.37;;;5.10;82.10;;;;;;6084543;23;20210;-89
2021/03/23 21:51:47;;;;;;;45.65;29.58;;;7.10;74.80;;;;;;6110801;23;20142;-87
2021/03/23 21:54:16;;;;;;;40.77;25.70;;;6.30;83.00;;;;;;6085932;23;20172;-86
2021/03/23 21:56:46;;;;;;;44.28;28.33;;;8.30;72.10;;;;;;6111706;23;20190;-89
2021/03/23 21:59:25;;;;;;;46.63;27.45;;;5.20;74.80;;;;;;6087034;23;20165;-88
2021/03/23 22:01:57;;;;;;;42.33;28.67;;;6.80;76.10;;;;;;6118448;23;20209;-88
2021/03/23 22:04:28;;;;;;;43.78;30.05;;;9.70;78.40;;;;;;6096090;23;20145;-87
2021/03/23 22:06:59;;;;;;;44.97;29.50;;;6.80;76.10;;;;;;6094492;23;20184;-88
2021/03/23 22:09:30;;;;;;;50.35;31.13;;;5.50;75.70;;;;;;6094376;23;20162;-88
2021/03/23 22:11:55;;;;;;;45.95;29.50;;;7.90;78.80;;;;;;6095274;23;20138;-89
2021/03/23 22:14:34;;;;;;;48.40;30.27;;;5.40;81.90;;;;;;6118726;23;20166;-89
2021/03/23 22:17:18;;;;;;;46.60;30.15;;;6.00;82.10;;;;;;6093741;23;20185;-89
2021/03/23 22:19:48;;;;;;;46.60;31.27;;;5.40;75.60;;;;;;6208375;23;20158;-89
2021/03/23 22:22:28;;;;;;;58.10;30.75;;;5.60;75.50;;;;;;6092206;23;20181;-89
2021/03/23 22:25:07;;;;;;;49.10;32.08;;;5.40;74.60;;;;;;6094165;23;20161;-89
2021/03/23 22:28:11;;;;;;;;;;;;;;;;;;;;;
2021/03/23 22:30:48;;;;;;;47.90;30.83;;;9.40;76.50;;;;;;6184092;23;20154;-88
2021/03/23 22:33:27;;;;;;;48.75;31.27;;;5.40;74.60;;;;;;6119476;23;20114;-88
2021/03/23 22:35:59;;;;;;;44.72;28.02;;;5.40;73.90;;;;;;6093894;23;20177;-88
2021/03/23 22:38:54;;;;;;;52.85;31.85;;;6.40;72.30;;;;;;6094312;23;20142;-88
2021/03/23 22:41:32;;;;;;;45.30;28.33;;;5.30;73.90;;;;;;6095198;23;20143;-88
2021/03/23 22:44:06;;;;;;;50.78;30.17;;;7.80;75.30;;;;;;6209464;23;20189;-88
2021/03/23 22:46:57;;;;;;;52.92;31.27;;;5.30;74.10;;;;;;6212861;23;20152;-88
2021/03/23 22:52:37;;;;;;;55.25;33.35;;;5.10;72.40;;;;;;6219633;23;20159;-88
2021/03/23 22:55:33;;;;;;;52.58;34.13;;;7.10;75.20;;;;;;6187271;23;20151;-88
2021/03/23 22:58:11;;;;;;;50.58;31.50;;;7.40;75.30;;;;;;6231487;23;20195;-88
2021/03/23 23:01:15;;;;;;;48.42;31.40;;;7.50;76.10;;;;;;6211288;23;20149;-88
2021/03/23 23:04:21;;;;;;;;;;;;;;;;;;;;;
2021/03/23 23:07:29;;;;;;;52.20;32.95;;;7.50;75.40;;;;;;6205231;23;20167;-88
2021/03/23 23:10:09;;;;;;;54.63;34.60;;;4.20;71.00;;;;;;6211947;23;20173;-89
2021/03/23 23:12:45;;;;;;;53.03;32.97;;;7.60;75.50;;;;;;6211213;23;20144;-88
2021/03/23 23:15:40;;;;;;;65.75;34.55;;;4.80;75.00;;;;;;6233547;23;20144;-88
2021/03/23 23:19:07;;;;;;;59.70;33.70;;;4.80;75.20;;;;;;6210349;23;20160;-89
2021/03/23 23:21:40;;;;;;;57.05;34.72;;;6.00;75.30;;;;;;6204478;23;20212;-88
2021/03/23 23:24:40;;;;;;;60.40;35.53;;;9.00;78.70;;;;;;6201959;23;20167;-87
2021/03/23 23:27:41;;;;;;;;;;;;;;;;;;;;;
2021/03/23 23:30:31;;;;;;;;;;;;;;;;;;;;;
2021/03/23 23:33:12;;;;;;;59.30;35.22;;;4.70;75.70;;;;;;6211042;23;20140;-88
2021/03/23 23:35:56;;;;;;;64.50;34.95;;;5.60;74.10;;;;;;6209825;23;20151;-88
2021/03/23 23:38:41;;;;;;;59.65;35.65;;;6.70;75.60;;;;;;6207990;23;20196;-87
2021/03/23 23:41:37;;;;;;;56.80;34.25;;;3.40;71.20;;;;;;6211205;23;20153;-88
2021/03/23 23:44:17;;;;;;;56.63;32.90;;;7.00;76.30;;;;;;6094103;23;20186;-88
2021/03/23 23:47:14;;;;;;;61.03;35.15;;;4.90;73.40;;;;;;6089081;23;20135;-88
2021/03/23 23:49:59;;;;;;;62.47;36.45;;;7.10;76.40;;;;;;6110365;23;20230;-88